Time;durP1;ratioP1;P1;durP2;ratioP2;P2;SDS_P1;SDS_P2;PMS_P1;PMS_P2;Temp;Humidity;BMP_temperature;BMP_pressure;BME280_temperature;BME280_humidity;BME280_pressure;Samples;Min_cycle;Max_cycle;Signal;HPM_P1;HPM_P2
2021/03/07 00:02:08;;;;;;;13.10;7.63;;;-1.50;80.80;;;;;;4987732;28;20512;-62
2021/03/07 00:04:35;;;;;;;15.37;8.00;;;-1.50;81.30;;;;;;4988284;28;20560;-61
2021/03/07 00:07:04;;;;;;;15.67;8.30;;;-1.50;81.50;;;;;;4990857;28;20189;-60
2021/03/07 00:09:30;;;;;;;16.50;8.30;;;-1.50;81.70;;;;;;4993144;28;20417;-59
2021/03/07 00:11:55;;;;;;;12.53;7.70;;;-1.60;81.90;;;;;;4989974;28;20501;-60
2021/03/07 00:14:21;;;;;;;11.03;7.60;;;-1.60;82.30;;;;;;4990683;28;20182;-60
2021/03/07 00:16:47;;;;;;;12.77;7.87;;;-1.60;82.60;;;;;;4990010;28;20216;-62
2021/03/07 00:19:12;;;;;;;18.83;9.03;;;-1.60;82.70;;;;;;4988794;28;20283;-60
2021/03/07 00:21:38;;;;;;;16.63;8.30;;;-1.60;82.70;;;;;;4989100;28;20185;-59
2021/03/07 00:24:04;;;;;;;14.33;8.30;;;-1.60;83.20;;;;;;4988301;28;20177;-60
2021/03/07 00:26:30;;;;;;;11.27;7.53;;;-1.70;83.50;;;;;;4992063;28;20532;-60
2021/03/07 00:28:55;;;;;;;16.77;8.63;;;-1.70;84.10;;;;;;4991217;28;20934;-63
2021/03/07 00:31:21;;;;;;;15.27;8.37;;;-1.70;84.00;;;;;;4986886;28;20182;-60
2021/03/07 00:33:47;;;;;;;15.43;7.83;;;-1.70;83.90;;;;;;4987450;28;20175;-60
2021/03/07 00:36:12;;;;;;;15.10;7.40;;;-1.70;84.00;;;;;;4987652;28;20244;-60
2021/03/07 00:38:38;;;;;;;17.87;8.40;;;-1.70;84.40;;;;;;4988978;28;20194;-59
2021/03/07 00:41:04;;;;;;;14.63;7.93;;;-1.70;84.20;;;;;;4990103;28;20953;-63
2021/03/07 00:43:30;;;;;;;15.70;8.50;;;-1.70;84.40;;;;;;4987587;28;20628;-60
2021/03/07 00:45:56;;;;;;;15.33;7.70;;;-1.70;84.30;;;;;;4987821;28;20197;-60
2021/03/07 00:48:24;;;;;;;11.80;7.00;;;-1.80;84.30;;;;;;5006586;28;20430;-62
2021/03/07 00:50:50;;;;;;;15.17;7.87;;;-1.80;84.80;;;;;;4989582;28;20194;-60
2021/03/07 00:53:15;;;;;;;13.20;8.63;;;-1.80;85.10;;;;;;4987236;28;20962;-61
2021/03/07 00:55:41;;;;;;;14.00;7.20;;;-1.80;85.20;;;;;;4987578;28;20197;-61
2021/03/07 00:58:07;;;;;;;15.23;8.43;;;-1.90;85.30;;;;;;4985822;28;20577;-61
2021/03/07 01:00:33;;;;;;;14.77;8.87;;;-1.90;85.60;;;;;;4984734;28;20166;-60
2021/03/07 01:02:58;;;;;;;12.10;7.57;;;-1.90;85.50;;;;;;4989406;28;20233;-60
2021/03/07 01:05:27;;;;;;;13.20;8.07;;;-1.90;85.50;;;;;;4986388;28;20191;-61
2021/03/07 01:07:53;;;;;;;9.80;7.27;;;-1.90;85.40;;;;;;4984852;28;20177;-61
2021/03/07 01:10:32;;;;;;;15.00;8.80;;;-2.00;86.00;;;;;;4988604;28;20430;-62
2021/03/07 01:12:58;;;;;;;15.53;8.00;;;-1.90;86.50;;;;;;4983320;28;20425;-61
2021/03/07 01:15:29;;;;;;;12.00;7.90;;;-2.00;87.00;;;;;;4987836;28;20444;-61
2021/03/07 01:17:55;;;;;;;14.47;8.20;;;-2.00;87.20;;;;;;4987455;28;20457;-61
2021/03/07 01:20:22;;;;;;;14.63;9.00;;;-2.00;87.20;;;;;;4986378;28;20948;-61
2021/03/07 01:22:48;;;;;;;13.07;8.00;;;-2.00;87.10;;;;;;4987647;28;20526;-62
2021/03/07 01:25:14;;;;;;;13.40;8.03;;;-2.00;87.50;;;;;;5003077;28;20453;-59
2021/03/07 01:27:40;;;;;;;16.70;8.90;;;-2.10;87.40;;;;;;4983906;28;20408;-61
2021/03/07 01:30:10;;;;;;;10.97;6.90;;;-2.10;87.60;;;;;;4990195;28;20434;-61
2021/03/07 01:32:36;;;;;;;12.60;8.50;;;-2.10;87.60;;;;;;4986837;28;20174;-60
2021/03/07 01:35:04;;;;;;;10.83;7.03;;;-2.10;87.30;;;;;;4987266;28;20988;-61
2021/03/07 01:37:30;;;;;;;11.83;7.40;;;-2.10;87.50;;;;;;5005984;28;20428;-61
2021/03/07 01:39:56;;;;;;;16.40;8.37;;;-2.20;87.60;;;;;;4988593;28;20475;-61
2021/03/07 01:42:22;;;;;;;10.63;7.23;;;-2.20;87.60;;;;;;4985562;28;20679;-61
2021/03/07 01:44:47;;;;;;;11.63;7.37;;;-2.20;88.10;;;;;;4986625;28;20195;-62
2021/03/07 01:47:23;;;;;;;15.70;9.40;;;-2.20;88.40;;;;;;4984929;28;20711;-60
2021/03/07 01:49:48;;;;;;;15.00;8.57;;;-2.20;88.80;;;;;;4987937;28;20930;-60
2021/03/07 01:52:14;;;;;;;14.93;7.80;;;-2.30;88.60;;;;;;4965937;28;20433;-61
2021/03/07 01:54:40;;;;;;;16.03;8.30;;;-2.30;89.00;;;;;;4989875;28;20227;-63
2021/03/07 01:57:08;;;;;;;13.73;6.77;;;-2.30;89.40;;;;;;4985569;28;20206;-61
2021/03/07 01:59:35;;;;;;;13.43;6.90;;;-2.20;89.30;;;;;;4989956;28;20257;-60
2021/03/07 02:02:01;;;;;;;13.00;7.70;;;-2.30;89.20;;;;;;4986477;28;20442;-61
2021/03/07 02:04:26;;;;;;;16.20;8.10;;;-2.30;89.60;;;;;;4985981;28;20421;-61
2021/03/07 02:06:52;;;;;;;15.03;8.33;;;-2.20;89.90;;;;;;4988260;28;20620;-61
2021/03/07 02:09:18;;;;;;;11.70;6.87;;;-2.20;89.80;;;;;;5004581;28;20702;-60
2021/03/07 02:11:48;;;;;;;13.20;8.50;;;-2.20;89.80;;;;;;4989482;28;20178;-61
2021/03/07 02:14:15;;;;;;;14.00;7.70;;;-2.30;89.60;;;;;;4989569;28;20787;-62
2021/03/07 02:16:42;;;;;;;14.97;7.47;;;-2.30;89.50;;;;;;4988328;28;20663;-61
2021/03/07 02:19:09;;;;;;;17.40;8.43;;;-2.30;89.80;;;;;;4987365;28;20409;-61
2021/03/07 02:21:58;;;;;;;13.17;7.43;;;-2.30;90.00;;;;;;4991019;28;20900;-60
2021/03/07 02:24:24;;;;;;;17.90;8.00;;;-2.30;90.00;;;;;;4990775;28;20420;-62
2021/03/07 02:26:52;;;;;;;12.43;7.90;;;-2.30;90.10;;;;;;4986116;28;20432;-62
2021/03/07 02:29:20;;;;;;;22.83;8.53;;;-2.30;90.20;;;;;;4992153;28;20433;-61
2021/03/07 02:31:53;;;;;;;10.70;7.40;;;-2.30;90.20;;;;;;4992725;28;20434;-61
2021/03/07 02:34:29;;;;;;;22.40;8.80;;;-2.30;90.30;;;;;;4996568;28;20391;-61
2021/03/07 02:36:59;;;;;;;24.37;7.97;;;-2.40;90.10;;;;;;4996692;28;20456;-61
2021/03/07 02:39:30;;;;;;;13.67;7.73;;;-2.30;90.60;;;;;;4993589;28;20417;-61
2021/03/07 02:41:59;;;;;;;13.10;8.10;;;-2.30;90.80;;;;;;4994912;28;20484;-62
2021/03/07 02:44:30;;;;;;;11.80;7.47;;;-2.30;91.10;;;;;;4997768;28;20457;-61
2021/03/07 02:46:57;;;;;;;12.53;7.53;;;-2.30;90.70;;;;;;4996614;28;20496;-64
2021/03/07 02:49:23;;;;;;;10.97;6.90;;;-2.20;90.80;;;;;;4995616;28;20428;-64
2021/03/07 02:51:49;;;;;;;11.37;7.50;;;-2.20;90.90;;;;;;4997359;28;20407;-61
2021/03/07 02:54:19;;;;;;;17.97;8.53;;;-2.10;91.10;;;;;;4992850;28;20433;-61
2021/03/07 02:56:50;;;;;;;11.80;7.43;;;-2.10;91.20;;;;;;4990912;28;20475;-60
2021/03/07 02:59:18;;;;;;;12.73;8.10;;;-2.10;91.30;;;;;;4990817;28;20437;-60
2021/03/07 03:01:45;;;;;;;13.60;7.60;;;-2.10;91.60;;;;;;4991528;28;20417;-61
2021/03/07 03:04:12;;;;;;;13.53;8.30;;;-2.10;91.70;;;;;;4987946;28;20404;-62
2021/03/07 03:06:42;;;;;;;13.87;7.43;;;-2.00;91.70;;;;;;4988880;28;20895;-62
2021/03/07 03:09:10;;;;;;;17.03;7.57;;;-2.00;92.00;;;;;;4987988;28;20424;-60
2021/03/07 03:11:40;;;;;;;13.00;8.07;;;-2.00;92.00;;;;;;4992876;28;20864;-61
2021/03/07 03:14:12;;;;;;;15.60;7.50;;;-2.00;92.20;;;;;;4989915;28;20392;-60
2021/03/07 03:16:39;;;;;;;15.70;8.87;;;-1.90;92.50;;;;;;4992112;28;20425;-62
2021/03/07 03:19:10;;;;;;;12.47;6.90;;;-1.90;92.10;;;;;;4982225;28;20802;-60
2021/03/07 03:21:38;;;;;;;13.40;7.50;;;-1.90;92.00;;;;;;4982623;28;20454;-60
2021/03/07 03:24:06;;;;;;;13.83;8.70;;;-1.90;91.90;;;;;;4979686;28;20428;-61
2021/03/07 03:26:32;;;;;;;12.00;7.90;;;-1.90;92.10;;;;;;4985206;28;20437;-60
2021/03/07 03:28:58;;;;;;;14.00;8.00;;;-1.90;92.10;;;;;;4981002;28;20422;-60
2021/03/07 03:31:25;;;;;;;12.77;7.97;;;-1.80;92.30;;;;;;4986839;28;20934;-61
2021/03/07 03:33:51;;;;;;;10.93;6.50;;;-1.80;92.10;;;;;;4980660;28;20491;-60
2021/03/07 03:36:17;;;;;;;10.97;7.00;;;-1.80;92.00;;;;;;4983545;28;20500;-60
2021/03/07 03:39:01;;;;;;;10.90;6.93;;;-1.80;92.00;;;;;;4998530;28;20553;-61
2021/03/07 03:41:30;;;;;;;21.13;8.23;;;-1.70;92.00;;;;;;4979839;28;20962;-61
2021/03/07 03:43:58;;;;;;;9.70;6.90;;;-1.70;92.00;;;;;;4993764;28;20426;-61
2021/03/07 03:46:25;;;;;;;16.60;7.53;;;-1.70;92.10;;;;;;4984807;28;20451;-61
2021/03/07 03:49:00;;;;;;;13.10;8.37;;;-1.70;92.00;;;;;;4983757;28;20508;-60
2021/03/07 03:51:29;;;;;;;14.43;7.63;;;-1.70;92.20;;;;;;4984031;28;20435;-61
2021/03/07 03:53:56;;;;;;;12.90;8.00;;;-1.60;92.30;;;;;;4984031;28;20421;-60
2021/03/07 03:56:24;;;;;;;9.50;6.80;;;-1.60;92.50;;;;;;4994658;28;20484;-60
2021/03/07 03:58:52;;;;;;;12.10;7.40;;;-1.60;92.40;;;;;;4976107;28;20504;-61
2021/03/07 04:01:19;;;;;;;12.73;6.90;;;-1.60;92.50;;;;;;4978939;28;20420;-63
2021/03/07 04:03:49;;;;;;;12.23;8.10;;;-1.60;92.20;;;;;;4979896;28;20424;-60
2021/03/07 04:06:20;;;;;;;12.93;6.90;;;-1.50;92.30;;;;;;4982692;28;20412;-61
2021/03/07 04:08:45;;;;;;;12.37;7.37;;;-1.50;92.10;;;;;;4986334;28;20429;-61
2021/03/07 04:11:12;;;;;;;13.93;7.77;;;-1.50;91.70;;;;;;4983431;28;20467;-60
2021/03/07 04:13:38;;;;;;;17.53;8.60;;;-1.50;92.00;;;;;;4985704;28;20483;-60
2021/03/07 04:16:04;;;;;;;11.03;7.30;;;-1.60;92.30;;;;;;4989513;28;20466;-59
2021/03/07 04:18:31;;;;;;;13.87;7.93;;;-1.60;92.20;;;;;;4990026;28;20516;-62
2021/03/07 04:21:00;;;;;;;12.17;7.80;;;-1.60;91.90;;;;;;4988291;28;20520;-62
2021/03/07 04:23:25;;;;;;;12.47;7.33;;;-1.60;91.90;;;;;;4990182;28;20508;-62
2021/03/07 04:25:51;;;;;;;16.77;7.90;;;-1.60;92.00;;;;;;4993170;28;20564;-60
2021/03/07 04:28:18;;;;;;;11.33;7.50;;;-1.60;92.20;;;;;;4987546;28;20212;-58
2021/03/07 04:30:44;;;;;;;13.50;7.47;;;-1.60;92.00;;;;;;4986089;28;20844;-60
2021/03/07 04:33:11;;;;;;;12.90;7.33;;;-1.50;92.00;;;;;;4987766;28;20464;-61
2021/03/07 04:35:40;;;;;;;12.83;7.10;;;-1.50;92.30;;;;;;5003732;28;21025;-61
2021/03/07 04:38:07;;;;;;;12.73;7.10;;;-1.50;92.30;;;;;;4991911;28;21015;-60
2021/03/07 04:40:35;;;;;;;10.97;6.77;;;-1.40;92.40;;;;;;4988797;28;20512;-58
2021/03/07 04:43:02;;;;;;;11.67;7.03;;;-1.30;92.40;;;;;;4985063;28;20460;-59
2021/03/07 04:45:28;;;;;;;12.83;7.97;;;-1.30;92.40;;;;;;4992022;28;20422;-58
2021/03/07 04:47:54;;;;;;;13.17;7.20;;;-1.30;92.20;;;;;;4990358;28;20469;-59
2021/03/07 04:50:20;;;;;;;12.10;7.73;;;-1.30;91.90;;;;;;4986240;28;20502;-59
2021/03/07 04:52:46;;;;;;;13.50;7.07;;;-1.30;91.90;;;;;;4990090;28;20171;-60
2021/03/07 04:55:13;;;;;;;12.07;7.10;;;-1.30;91.80;;;;;;4988911;28;20200;-61
2021/03/07 04:57:38;;;;;;;14.47;7.67;;;-1.30;91.80;;;;;;5003558;28;20202;-61
2021/03/07 05:00:10;;;;;;;13.17;7.67;;;-1.30;91.80;;;;;;4990210;28;20430;-58
2021/03/07 05:02:36;;;;;;;14.80;7.37;;;-1.30;91.90;;;;;;4988389;28;20178;-59
2021/03/07 05:05:03;;;;;;;11.87;7.70;;;-1.20;91.80;;;;;;4989702;28;21050;-60
2021/03/07 05:07:29;;;;;;;11.23;6.77;;;-1.20;91.60;;;;;;4986515;28;20429;-59
2021/03/07 05:09:55;;;;;;;11.00;7.37;;;-1.20;91.70;;;;;;4984807;28;20475;-59
2021/03/07 05:12:22;;;;;;;18.80;8.70;;;-1.20;91.50;;;;;;4988093;28;20315;-59
2021/03/07 05:14:48;;;;;;;14.60;7.70;;;-1.20;91.50;;;;;;4989112;28;20205;-59
2021/03/07 05:17:13;;;;;;;13.63;7.63;;;-1.10;91.40;;;;;;4985562;28;20859;-59
2021/03/07 05:19:39;;;;;;;13.00;7.23;;;-1.10;91.50;;;;;;4995039;28;20181;-61
2021/03/07 05:22:06;;;;;;;15.60;8.00;;;-1.10;91.60;;;;;;4988197;28;20178;-61
2021/03/07 05:24:32;;;;;;;13.73;7.13;;;-1.10;91.70;;;;;;4990207;28;20473;-59
2021/03/07 05:27:05;;;;;;;17.93;7.87;;;-1.10;91.90;;;;;;4969385;28;20978;-59
2021/03/07 05:29:35;;;;;;;12.40;7.33;;;-1.10;92.20;;;;;;4987818;28;20197;-59
2021/03/07 05:32:01;;;;;;;13.13;8.03;;;-1.10;92.30;;;;;;4989837;28;20396;-59
2021/03/07 05:34:27;;;;;;;12.13;7.00;;;-1.10;92.50;;;;;;4988658;28;20540;-59
2021/03/07 05:36:52;;;;;;;12.03;7.10;;;-1.10;92.50;;;;;;4987335;28;20526;-60
2021/03/07 05:39:18;;;;;;;13.20;7.30;;;-1.10;92.20;;;;;;4991042;28;20605;-58
2021/03/07 05:41:44;;;;;;;12.73;7.20;;;-1.10;91.80;;;;;;4985582;28;20230;-59
2021/03/07 05:44:10;;;;;;;11.53;7.43;;;-1.10;92.00;;;;;;4984941;28;20201;-58
2021/03/07 05:46:38;;;;;;;11.90;7.50;;;-1.10;92.20;;;;;;4987202;28;21014;-60
2021/03/07 05:49:04;;;;;;;13.50;7.83;;;-1.20;92.40;;;;;;4990590;28;20718;-60
2021/03/07 05:51:30;;;;;;;18.97;9.30;;;-1.10;92.60;;;;;;4987702;28;20431;-59
2021/03/07 05:53:56;;;;;;;13.03;7.30;;;-1.10;92.50;;;;;;4989460;28;20448;-59
2021/03/07 05:56:23;;;;;;;10.63;7.73;;;-1.10;92.70;;;;;;4987495;28;20220;-58
2021/03/07 05:58:50;;;;;;;25.00;12.57;;;-1.10;93.00;;;;;;4987490;28;20449;-58
2021/03/07 06:01:19;;;;;;;20.20;8.13;;;-1.10;92.60;;;;;;4986068;28;20420;-60
2021/03/07 06:03:44;;;;;;;9.60;7.47;;;-1.10;92.30;;;;;;4980913;28;20469;-60
2021/03/07 06:06:10;;;;;;;16.83;8.30;;;-1.10;92.60;;;;;;4980032;28;20510;-61
2021/03/07 06:08:39;;;;;;;16.90;8.50;;;-1.10;92.80;;;;;;4984704;28;20205;-60
2021/03/07 06:11:06;;;;;;;13.50;7.70;;;-1.10;92.70;;;;;;4967352;28;20188;-58
2021/03/07 06:13:44;;;;;;;15.00;8.53;;;-1.10;92.60;;;;;;4989290;28;20424;-59
2021/03/07 06:16:11;;;;;;;12.90;8.00;;;-1.10;92.60;;;;;;4980789;28;20505;-60
2021/03/07 06:18:45;;;;;;;10.40;7.77;;;-1.10;92.50;;;;;;4984628;28;20462;-59
2021/03/07 06:21:33;;;;;;;12.77;7.63;;;-1.00;92.30;;;;;;4985981;28;20420;-60
2021/03/07 06:24:00;;;;;;;12.83;7.20;;;-1.00;92.20;;;;;;4987901;28;20472;-60
2021/03/07 06:26:27;;;;;;;14.60;7.67;;;-0.90;92.20;;;;;;4984909;28;20976;-59
2021/03/07 06:29:09;;;;;;;11.67;7.33;;;-0.90;92.20;;;;;;4986688;28;20949;-61
2021/03/07 06:31:35;;;;;;;13.50;7.80;;;-0.90;92.20;;;;;;4989523;28;20966;-62
2021/03/07 06:34:01;;;;;;;15.13;8.20;;;-0.80;91.90;;;;;;4984984;28;21045;-58
2021/03/07 06:36:28;;;;;;;14.80;8.03;;;-0.80;91.70;;;;;;4982587;28;20573;-59
2021/03/07 06:39:00;;;;;;;14.37;8.77;;;-0.70;91.60;;;;;;4988447;28;20566;-58
2021/03/07 06:41:28;;;;;;;16.30;8.33;;;-0.70;91.10;;;;;;4987635;28;20433;-60
2021/03/07 06:44:19;;;;;;;12.03;7.20;;;-0.70;91.20;;;;;;4987043;28;20418;-60
2021/03/07 06:46:47;;;;;;;12.23;7.40;;;-0.60;91.10;;;;;;4984984;28;20478;-60
2021/03/07 06:49:22;;;;;;;13.43;7.07;;;-0.60;91.20;;;;;;4988762;28;20537;-60
2021/03/07 06:51:48;;;;;;;14.50;7.80;;;-0.60;90.80;;;;;;4979174;28;20483;-60
2021/03/07 06:54:16;;;;;;;10.87;7.33;;;-0.60;90.40;;;;;;4983144;28;20436;-59
2021/03/07 06:56:47;;;;;;;17.63;7.80;;;-0.50;90.40;;;;;;4985969;28;20497;-60
2021/03/07 06:59:18;;;;;;;11.80;7.30;;;-0.50;90.40;;;;;;4986247;28;20440;-61
2021/03/07 07:01:45;;;;;;;14.17;8.40;;;-0.50;90.60;;;;;;4984549;28;20518;-59
2021/03/07 07:04:15;;;;;;;13.60;7.10;;;-0.40;90.50;;;;;;4976140;28;20420;-59
2021/03/07 07:06:42;;;;;;;12.93;6.90;;;-0.30;90.00;;;;;;4978333;28;20437;-60
2021/03/07 07:09:10;;;;;;;20.10;8.13;;;-0.30;89.80;;;;;;4990385;28;20436;-60
2021/03/07 07:11:48;;;;;;;12.20;7.57;;;-0.30;89.10;;;;;;4988444;28;20429;-60
2021/03/07 07:14:29;;;;;;;14.77;7.60;;;-0.20;87.90;;;;;;4980800;28;20438;-61
2021/03/07 07:16:55;;;;;;;15.73;7.90;;;-0.10;88.00;;;;;;4995904;28;20946;-60
2021/03/07 07:19:21;;;;;;;12.43;7.80;;;-0.10;87.40;;;;;;4997273;28;21033;-60
2021/03/07 07:21:47;;;;;;;12.40;7.30;;;0.00;87.70;;;;;;4984876;28;20426;-59
2021/03/07 07:24:16;;;;;;;13.93;7.30;;;0.10;87.90;;;;;;4976549;28;20183;-61
2021/03/07 07:26:45;;;;;;;11.00;7.00;;;0.10;87.70;;;;;;4978698;28;20446;-59
2021/03/07 07:29:10;;;;;;;10.50;7.10;;;0.20;87.20;;;;;;4977910;28;20438;-59
2021/03/07 07:31:51;;;;;;;18.53;8.40;;;0.20;87.50;;;;;;4976001;28;20512;-59
2021/03/07 07:34:25;;;;;;;11.53;7.67;;;0.20;86.80;;;;;;4994665;28;20993;-59
2021/03/07 07:36:57;;;;;;;13.37;8.00;;;0.30;87.90;;;;;;4996899;28;20465;-61
2021/03/07 07:39:32;;;;;;;14.27;8.20;;;0.30;89.30;;;;;;4981348;28;20860;-59
2021/03/07 07:41:58;;;;;;;13.57;8.10;;;0.40;89.30;;;;;;4981435;28;20738;-60
2021/03/07 07:44:33;;;;;;;12.20;8.13;;;0.40;88.00;;;;;;4981518;28;20466;-61
2021/03/07 07:47:03;;;;;;;13.93;8.23;;;0.50;88.10;;;;;;4980614;28;20433;-60
2021/03/07 07:49:48;;;;;;;16.13;9.03;;;0.50;87.60;;;;;;4980165;28;20422;-60
2021/03/07 07:52:26;;;;;;;10.23;6.77;;;0.50;87.60;;;;;;4978634;28;20484;-59
2021/03/07 07:54:58;;;;;;;12.47;8.57;;;0.60;87.90;;;;;;4980792;28;20452;-61
2021/03/07 07:57:33;;;;;;;14.17;7.80;;;0.70;88.50;;;;;;4981195;28;21019;-61
2021/03/07 08:00:12;;;;;;;16.13;8.47;;;0.70;87.70;;;;;;4980002;28;20462;-62
2021/03/07 08:02:44;;;;;;;15.00;7.70;;;0.80;88.50;;;;;;4977869;28;20426;-62
2021/03/07 08:05:24;;;;;;;13.60;7.90;;;0.80;88.90;;;;;;4994238;28;20454;-62
2021/03/07 08:08:00;;;;;;;12.10;7.60;;;0.90;88.50;;;;;;4979465;28;21374;-61
2021/03/07 08:10:44;;;;;;;14.33;8.90;;;1.10;87.10;;;;;;4985315;28;20428;-61
2021/03/07 08:13:30;;;;;;;13.13;8.00;;;1.20;87.30;;;;;;4983686;28;20449;-61
2021/03/07 08:15:57;;;;;;;15.70;8.10;;;1.40;87.00;;;;;;4973951;28;20455;-60
2021/03/07 08:18:45;;;;;;;14.70;8.53;;;1.50;85.60;;;;;;4979357;28;20499;-59
2021/03/07 08:21:11;;;;;;;13.70;8.07;;;1.60;85.50;;;;;;4984120;28;21459;-61
2021/03/07 08:24:04;;;;;;;12.10;8.10;;;1.60;84.20;;;;;;4982426;28;20798;-62
2021/03/07 08:26:51;;;;;;;13.77;8.27;;;1.70;84.00;;;;;;4981631;28;20463;-60
2021/03/07 08:29:36;;;;;;;18.77;10.50;;;1.80;83.90;;;;;;4990094;28;20427;-61
2021/03/07 08:32:53;;;;;;;15.03;9.27;;;1.90;81.80;;;;;;4988204;28;20438;-62
2021/03/07 08:35:25;;;;;;;24.70;10.43;;;2.00;82.70;;;;;;4978492;28;20466;-61
2021/03/07 08:38:11;;;;;;;15.50;9.27;;;2.10;81.90;;;;;;4976503;28;20484;-62
2021/03/07 08:40:39;;;;;;;20.20;11.20;;;2.20;81.90;;;;;;4980897;28;20425;-61
2021/03/07 08:43:23;;;;;;;17.13;11.47;;;2.40;81.90;;;;;;4974024;28;20466;-62
2021/03/07 08:46:04;;;;;;;19.93;10.00;;;2.50;79.00;;;;;;4971001;28;20446;-62
2021/03/07 08:48:32;;;;;;;19.73;10.47;;;2.60;77.60;;;;;;4971860;28;20469;-56
2021/03/07 08:50:58;;;;;;;21.00;11.17;;;2.70;75.70;;;;;;4973287;28;20439;-57
2021/03/07 08:53:25;;;;;;;20.20;11.60;;;2.70;76.90;;;;;;4964342;28;20427;-61
2021/03/07 08:55:52;;;;;;;21.37;12.10;;;2.80;74.80;;;;;;4972587;28;21015;-61
2021/03/07 08:58:18;;;;;;;20.03;11.80;;;2.80;73.90;;;;;;4973133;28;20498;-62
2021/03/07 09:00:45;;;;;;;21.30;12.87;;;2.90;74.70;;;;;;4975783;28;20433;-61
2021/03/07 09:03:15;;;;;;;21.53;12.13;;;2.90;74.00;;;;;;4974076;28;20802;-61
2021/03/07 09:05:41;;;;;;;22.93;13.60;;;2.90;75.20;;;;;;4977049;28;21319;-62
2021/03/07 09:08:07;;;;;;;20.67;12.57;;;2.90;76.20;;;;;;4985233;28;20458;-60
2021/03/07 09:10:38;;;;;;;23.90;12.90;;;3.00;77.60;;;;;;4979110;28;20446;-60
2021/03/07 09:13:18;;;;;;;26.77;12.93;;;3.00;77.20;;;;;;4979638;28;20429;-62
2021/03/07 09:16:01;;;;;;;22.47;12.80;;;3.10;78.60;;;;;;4977854;28;20489;-60
2021/03/07 09:18:35;;;;;;;26.73;13.10;;;3.20;78.10;;;;;;4978159;28;20467;-62
2021/03/07 09:21:12;;;;;;;26.30;14.17;;;3.40;76.00;;;;;;4992526;28;20427;-60
2021/03/07 09:23:41;;;;;;;22.03;13.07;;;3.50;75.70;;;;;;4977631;28;20434;-59
2021/03/07 09:26:09;;;;;;;29.80;15.20;;;3.60;75.20;;;;;;4971551;28;20463;-63
2021/03/07 09:28:41;;;;;;;26.33;15.13;;;3.70;76.60;;;;;;4974229;28;20426;-63
2021/03/07 09:31:15;;;;;;;28.47;14.80;;;3.80;75.90;;;;;;4977633;28;20514;-62
2021/03/07 09:34:02;;;;;;;26.70;14.50;;;3.90;76.20;;;;;;4975070;28;20431;-61
2021/03/07 09:36:29;;;;;;;27.37;14.17;;;4.10;76.20;;;;;;4974279;28;20455;-60
2021/03/07 09:39:04;;;;;;;27.50;16.33;;;4.20;76.90;;;;;;4976853;28;20465;-61
2021/03/07 09:41:44;;;;;;;36.53;14.60;;;4.40;77.80;;;;;;4979771;28;20431;-60
2021/03/07 09:44:21;;;;;;;29.60;16.57;;;4.60;77.00;;;;;;4981012;28;21221;-61
2021/03/07 09:46:50;;;;;;;25.90;15.47;;;4.80;76.20;;;;;;4980268;28;20430;-62
2021/03/07 09:49:24;;;;;;;29.17;16.60;;;5.00;72.80;;;;;;4978575;28;20444;-59
2021/03/07 09:51:52;;;;;;;30.80;16.37;;;5.20;72.40;;;;;;4977903;28;20435;-59
2021/03/07 09:54:18;;;;;;;26.93;15.53;;;5.30;69.00;;;;;;4980195;28;21825;-58
2021/03/07 09:56:46;;;;;;;26.90;14.83;;;5.50;69.60;;;;;;4973946;28;20539;-63
2021/03/07 09:59:13;;;;;;;29.27;16.40;;;5.70;70.50;;;;;;4977675;28;20506;-60
2021/03/07 10:01:59;;;;;;;28.80;15.33;;;5.90;70.20;;;;;;4972185;28;20464;-61
2021/03/07 10:04:39;;;;;;;30.10;15.50;;;6.00;70.20;;;;;;4978569;28;20439;-61
2021/03/07 10:07:11;;;;;;;27.67;15.80;;;6.20;70.10;;;;;;4979515;28;20445;-62
2021/03/07 10:10:05;;;;;;;31.23;16.43;;;6.30;68.00;;;;;;4998017;28;20500;-64
2021/03/07 10:12:57;;;;;;;31.17;16.17;;;6.40;69.50;;;;;;4998954;28;20447;-64
2021/03/07 10:15:33;;;;;;;30.47;16.53;;;6.50;67.90;;;;;;4986165;28;20456;-62
2021/03/07 10:18:17;;;;;;;27.40;15.87;;;6.70;66.80;;;;;;4991749;28;20459;-62
2021/03/07 10:20:44;;;;;;;30.87;15.47;;;6.90;66.40;;;;;;4979066;28;20716;-61
2021/03/07 10:23:10;;;;;;;27.27;14.60;;;7.00;64.10;;;;;;4981925;28;20439;-64
2021/03/07 10:25:41;;;;;;;30.77;15.40;;;7.10;62.10;;;;;;4975779;28;20491;-62
2021/03/07 10:28:19;;;;;;;26.33;14.00;;;7.30;64.00;;;;;;4980230;28;20437;-64
2021/03/07 10:30:45;;;;;;;48.33;17.10;;;7.50;61.30;;;;;;4981160;28;20439;-62
2021/03/07 10:33:23;;;;;;;47.83;21.97;;;7.60;61.10;;;;;;4979412;28;20782;-62
2021/03/07 10:36:04;;;;;;;38.50;17.17;;;7.80;59.10;;;;;;4989830;28;20459;-63
2021/03/07 10:38:32;;;;;;;29.50;13.80;;;8.00;60.40;;;;;;4999368;28;21154;-63
2021/03/07 10:40:58;;;;;;;28.70;15.00;;;8.20;58.20;;;;;;4984907;28;20428;-61
2021/03/07 10:43:24;;;;;;;27.13;14.90;;;8.30;57.20;;;;;;4976120;28;20448;-61
2021/03/07 10:45:50;;;;;;;26.00;14.17;;;8.50;56.70;;;;;;4982117;28;20255;-59
2021/03/07 10:48:16;;;;;;;25.13;15.30;;;8.70;56.30;;;;;;4988145;28;21016;-62
2021/03/07 10:50:49;;;;;;;29.10;15.27;;;8.80;55.10;;;;;;4987766;28;20455;-62
2021/03/07 10:53:17;;;;;;;26.47;15.00;;;8.90;54.60;;;;;;4989248;28;21192;-61
2021/03/07 10:55:52;;;;;;;23.93;13.57;;;9.00;55.00;;;;;;4983230;28;20455;-61
2021/03/07 10:58:18;;;;;;;25.90;14.63;;;9.20;55.80;;;;;;4982672;28;20471;-62
2021/03/07 11:00:43;;;;;;;26.87;14.60;;;9.40;55.90;;;;;;4982748;28;20974;-60
2021/03/07 11:03:11;;;;;;;29.13;14.67;;;9.70;53.70;;;;;;4986869;28;20665;-60
2021/03/07 11:05:36;;;;;;;28.90;14.27;;;9.80;53.00;;;;;;4990249;28;20455;-61
2021/03/07 11:08:02;;;;;;;24.07;14.30;;;9.80;51.90;;;;;;4986810;28;20452;-61
2021/03/07 11:10:28;;;;;;;26.47;15.17;;;9.90;51.10;;;;;;4970449;28;20284;-61
2021/03/07 11:12:54;;;;;;;23.27;14.70;;;10.00;50.00;;;;;;4983833;28;20460;-62
2021/03/07 11:15:20;;;;;;;23.63;14.70;;;10.00;50.20;;;;;;4978306;28;20452;-60
2021/03/07 11:17:46;;;;;;;19.30;12.47;;;10.00;49.20;;;;;;4982125;28;21014;-61
2021/03/07 11:20:13;;;;;;;25.17;14.73;;;10.10;49.20;;;;;;4987817;28;20189;-60
2021/03/07 11:22:39;;;;;;;26.43;15.47;;;10.20;48.90;;;;;;4977764;28;20502;-62
2021/03/07 11:25:06;;;;;;;27.17;15.37;;;10.20;49.20;;;;;;4978752;28;20467;-61
2021/03/07 11:27:32;;;;;;;27.70;15.10;;;10.30;49.10;;;;;;4981119;28;20439;-59
2021/03/07 11:29:58;;;;;;;26.00;15.33;;;10.30;49.00;;;;;;4985733;28;20432;-60
2021/03/07 11:32:24;;;;;;;24.57;14.83;;;10.50;48.60;;;;;;4983634;28;20440;-62
2021/03/07 11:34:49;;;;;;;21.43;14.00;;;10.70;48.50;;;;;;4979131;28;20472;-60
2021/03/07 11:37:15;;;;;;;25.97;14.70;;;11.10;48.30;;;;;;4982057;28;20724;-62
2021/03/07 11:39:41;;;;;;;26.10;16.27;;;11.30;47.40;;;;;;4983380;28;20276;-62
2021/03/07 11:42:07;;;;;;;25.40;14.60;;;11.50;46.60;;;;;;4986351;28;20185;-61
2021/03/07 11:44:33;;;;;;;30.83;15.63;;;11.50;46.60;;;;;;4982030;28;20661;-62
2021/03/07 11:46:59;;;;;;;31.00;16.37;;;11.20;46.10;;;;;;4980646;28;20447;-61
2021/03/07 11:49:25;;;;;;;25.70;15.77;;;11.10;47.10;;;;;;4977036;28;20440;-61
2021/03/07 11:51:51;;;;;;;26.07;14.63;;;11.30;46.90;;;;;;4985623;28;20443;-62
2021/03/07 11:54:18;;;;;;;25.80;15.40;;;11.60;47.00;;;;;;4980533;28;20185;-59
2021/03/07 11:56:46;;;;;;;28.33;16.27;;;12.20;46.10;;;;;;4980126;28;20882;-61
2021/03/07 11:59:12;;;;;;;30.03;17.10;;;12.80;45.60;;;;;;4990759;28;20566;-61
2021/03/07 12:01:38;;;;;;;29.57;16.03;;;13.30;44.00;;;;;;4990675;28;20442;-61
2021/03/07 12:04:04;;;;;;;32.87;17.47;;;13.60;42.70;;;;;;4981950;28;20429;-61
2021/03/07 12:06:30;;;;;;;31.77;17.70;;;13.80;42.60;;;;;;4981181;28;20258;-62
2021/03/07 12:08:56;;;;;;;28.90;17.93;;;13.70;42.00;;;;;;4974272;28;20189;-62
2021/03/07 12:11:21;;;;;;;27.90;17.40;;;13.50;42.80;;;;;;4981898;28;20211;-62
2021/03/07 12:13:47;;;;;;;32.67;18.53;;;13.20;42.60;;;;;;4980075;28;20902;-61
2021/03/07 12:16:13;;;;;;;29.63;17.37;;;12.50;43.10;;;;;;4981253;28;20298;-62
2021/03/07 12:18:41;;;;;;;30.43;18.20;;;11.70;44.30;;;;;;4983237;28;20283;-62
2021/03/07 12:21:08;;;;;;;32.77;17.20;;;11.00;45.80;;;;;;5003699;28;20921;-61
2021/03/07 12:23:34;;;;;;;29.17;17.03;;;10.50;47.30;;;;;;4983258;28;20432;-60
2021/03/07 12:26:00;;;;;;;30.13;16.80;;;10.20;48.20;;;;;;4992213;28;20460;-61
2021/03/07 12:28:26;;;;;;;33.80;18.40;;;10.30;49.70;;;;;;4979863;28;20432;-61
2021/03/07 12:30:52;;;;;;;30.93;17.13;;;10.50;49.00;;;;;;4987001;28;20917;-60
2021/03/07 12:33:18;;;;;;;31.23;16.87;;;10.80;49.20;;;;;;4988891;28;20193;-59
2021/03/07 12:35:44;;;;;;;33.70;18.07;;;11.30;49.30;;;;;;4982305;28;20835;-63
2021/03/07 12:38:10;;;;;;;28.63;16.07;;;11.80;48.60;;;;;;4973900;28;21056;-60
2021/03/07 12:40:35;;;;;;;28.83;16.53;;;12.20;47.70;;;;;;4978267;28;20622;-60
2021/03/07 12:43:01;;;;;;;31.07;16.40;;;12.70;46.50;;;;;;4987736;28;20185;-63
2021/03/07 12:45:28;;;;;;;26.57;17.13;;;13.00;45.20;;;;;;5000683;28;20221;-63
2021/03/07 12:47:53;;;;;;;27.50;16.67;;;13.30;45.50;;;;;;5004059;28;20471;-68